Time;durP1;ratioP1;P1;durP2;ratioP2;P2;SDS_P1;SDS_P2;PMS_P1;PMS_P2;Temp;Humidity;BMP_temperature;BMP_pressure;BME280_temperature;BME280_humidity;BME280_pressure;Samples;Min_cycle;Max_cycle;Signal;HPM_P1;HPM_P2
2023/10/11 00:00:24;;;;;;;;;;;18.20;99.90;;;;;;12506272;28;19928;-82
2023/10/11 00:06:26;;;;;;;;;;;18.10;99.90;;;;;;12478564;28;19928;-84
2023/10/11 00:12:29;;;;;;;;;;;18.20;99.90;;;;;;12500223;28;19969;-82
2023/10/11 00:18:31;;;;;;;;;;;18.00;99.90;;;;;;12498017;28;19929;-83
2023/10/11 00:24:33;;;;;;;;;;;18.00;99.90;;;;;;12505264;28;20385;-82
2023/10/11 00:30:36;;;;;;;;;;;18.00;99.90;;;;;;12501565;28;19937;-82
2023/10/11 00:36:39;;;;;;;;;;;17.90;99.90;;;;;;12503175;28;19929;-82
2023/10/11 00:42:42;;;;;;;;;;;17.90;99.90;;;;;;12480171;28;20343;-82
2023/10/11 00:48:51;;;;;;;;;;;17.90;99.90;;;;;;12497810;28;20357;-82
2023/10/11 00:54:53;;;;;;;;;;;17.90;99.90;;;;;;12504305;28;19974;-87
2023/10/11 01:00:55;;;;;;;;;;;17.90;99.90;;;;;;12487962;28;19929;-82
2023/10/11 01:06:57;;;;;;;;;;;17.80;99.90;;;;;;12492581;28;19929;-82
2023/10/11 01:12:59;;;;;;;;;;;17.70;99.90;;;;;;12501066;28;20343;-82
2023/10/11 01:19:00;;;;;;;;;;;17.70;99.90;;;;;;12487511;28;19974;-83
2023/10/11 01:25:04;;;;;;;;;;;17.60;99.90;;;;;;12475925;28;19996;-83
2023/10/11 01:31:09;;;;;;;;;;;17.60;99.90;;;;;;12499823;28;19947;-83
2023/10/11 01:37:11;;;;;;;;;;;17.60;99.90;;;;;;12500914;28;19979;-84
2023/10/11 01:43:12;;;;;;;;;;;17.50;99.90;;;;;;12489197;28;20020;-84
2023/10/11 01:49:14;;;;;;;;;;;17.50;99.90;;;;;;12502666;28;20012;-84
2023/10/11 01:55:17;;;;;;;;;;;17.50;99.90;;;;;;12499856;28;19928;-83
2023/10/11 02:01:21;;;;;;;;;;;17.40;99.90;;;;;;12500298;28;19928;-86
2023/10/11 02:07:23;;;;;;;;;;;17.40;99.90;;;;;;12474097;28;19929;-83
2023/10/11 02:13:25;;;;;;;;;;;17.40;99.90;;;;;;12485756;28;19936;-83
2023/10/11 02:19:29;;;;;;;;;;;17.40;99.90;;;;;;12506673;28;19929;-84
2023/10/11 02:25:34;;;;;;;;;;;17.30;99.90;;;;;;12490765;28;19972;-83
2023/10/11 02:31:36;;;;;;;;;;;17.30;99.90;;;;;;12504855;28;19940;-84
2023/10/11 02:37:39;;;;;;;;;;;17.30;99.90;;;;;;12495381;28;19929;-82
2023/10/11 02:43:48;;;;;;;;;;;17.40;99.90;;;;;;12508548;28;19969;-83
2023/10/11 02:49:53;;;;;;;;;;;17.40;99.90;;;;;;12501804;28;19968;-83
2023/10/11 02:55:58;;;;;;;;;;;17.40;99.90;;;;;;12499206;28;20147;-85
2023/10/11 03:02:00;;;;;;;;;;;17.40;99.90;;;;;;12504961;28;20044;-83
2023/10/11 03:08:13;;;;;;;;;;;17.30;99.90;;;;;;12503898;28;20413;-83
2023/10/11 03:14:15;;;;;;;;;;;17.40;99.90;;;;;;12496084;28;19940;-85
2023/10/11 03:20:51;;;;;;;;;;;17.30;99.90;;;;;;12500943;28;19936;-83
2023/10/11 03:26:48;;;;;;;;;;;17.30;99.90;;;;;;12501229;28;19933;-84
2023/10/11 03:32:50;;;;;;;;;;;17.40;99.90;;;;;;12476288;28;19928;-85
2023/10/11 03:38:52;;;;;;;;;;;17.40;99.90;;;;;;12499447;28;19943;-84
2023/10/11 03:44:54;;;;;;;;;;;17.30;99.90;;;;;;12505322;28;19936;-85
2023/10/11 03:50:56;;;;;;;;;;;17.30;99.90;;;;;;12494206;28;20385;-84
2023/10/11 03:57:03;;;;;;;;;;;17.30;99.90;;;;;;12496396;28;19971;-86
2023/10/11 04:03:05;;;;;;;;;;;17.30;99.90;;;;;;12486025;28;19932;-84
2023/10/11 04:09:22;;;;;;;;;;;17.30;99.90;;;;;;12491989;28;19929;-84
2023/10/11 04:15:24;;;;;;;;;;;17.30;99.90;;;;;;12481678;28;19954;-87
2023/10/11 04:21:36;;;;;;;;;;;17.30;99.90;;;;;;12499252;28;19983;-85
2023/10/11 04:33:44;;;;;;;;;;;17.30;99.90;;;;;;12499211;28;20069;-84
2023/10/11 04:39:56;;;;;;;;;;;17.30;99.90;;;;;;12504036;28;19973;-84
2023/10/11 04:46:01;;;;;;;;;;;17.30;99.90;;;;;;12496110;28;19935;-85
2023/10/11 04:52:22;;;;;;;;;;;17.30;99.90;;;;;;12498439;28;20281;-85
2023/10/11 04:58:42;;;;;;;;;;;17.20;99.90;;;;;;12491637;28;20151;-85
2023/10/11 05:04:44;;;;;;;;;;;17.30;99.90;;;;;;12500298;28;19936;-87
2023/10/11 05:10:50;;;;;;;;;;;17.30;99.90;;;;;;12490899;28;20411;-85
2023/10/11 05:16:59;;;;;;;;;;;17.20;99.90;;;;;;12498268;28;20363;-85
2023/10/11 05:23:05;;;;;;;;;;;17.20;99.90;;;;;;12494571;28;19929;-84
2023/10/11 05:29:23;;;;;;;;;;;17.10;99.90;;;;;;12503803;28;19974;-83
2023/10/11 05:54:34;;;;;;;;;;;16.90;99.90;;;;;;12492106;28;19933;-84
2023/10/11 06:00:38;;;;;;;;;;;16.90;99.90;;;;;;12495450;28;20382;-84
2023/10/11 06:06:45;;;;;;;;;;;16.90;99.90;;;;;;12486403;28;19929;-84
2023/10/11 06:12:47;;;;;;;;;;;16.80;99.90;;;;;;12487854;28;21082;-85
2023/10/11 06:19:15;;;;;;;;;;;16.80;99.90;;;;;;12481719;28;20412;-84
2023/10/11 06:25:23;;;;;;;;;;;16.80;99.90;;;;;;12494424;28;19959;-86
2023/10/11 06:31:33;;;;;;;;;;;16.80;99.90;;;;;;12496401;28;19933;-85
2023/10/11 06:37:36;;;;;;;;;;;16.80;99.90;;;;;;12487238;28;20289;-84
2023/10/11 06:43:39;;;;;;;;;;;16.80;99.90;;;;;;12506606;28;19956;-84
2023/10/11 06:49:47;;;;;;;;;;;16.70;99.90;;;;;;12506148;28;20069;-84
2023/10/11 06:55:50;;;;;;;;;;;16.70;99.90;;;;;;12487889;28;19926;-85
2023/10/11 07:01:52;;;;;;;;;;;16.80;99.90;;;;;;12501757;28;20035;-83
2023/10/11 07:07:54;;;;;;;;;;;16.80;99.90;;;;;;12500719;28;19972;-84
2023/10/11 07:13:59;;;;;;;;;;;16.90;99.90;;;;;;12487030;28;19937;-84
2023/10/11 07:20:01;;;;;;;;;;;17.00;99.90;;;;;;12500563;28;19928;-85
2023/10/11 07:26:23;;;;;;;;;;;17.10;99.90;;;;;;12500798;28;20011;-83
2023/10/11 07:32:27;;;;;;;;;;;17.20;99.90;;;;;;12489361;28;19929;-84
2023/10/11 07:38:34;;;;;;;;;;;17.50;99.90;;;;;;12500086;28;19929;-86
2023/10/11 07:44:38;;;;;;;;;;;17.50;99.90;;;;;;12507408;28;19925;-85
2023/10/11 07:50:42;;;;;;;;;;;17.70;99.90;;;;;;12490851;28;19936;-85
2023/10/11 07:56:44;;;;;;;;;;;17.80;99.90;;;;;;12486807;28;20395;-83
2023/10/11 08:02:59;;;;;;;;;;;17.80;99.90;;;;;;12495233;28;19925;-83
2023/10/11 08:09:01;;;;;;;;;;;17.90;99.90;;;;;;12499649;28;19964;-86
2023/10/11 08:15:04;;;;;;;;;;;18.00;99.90;;;;;;12492430;28;19928;-83
2023/10/11 08:21:06;;;;;;;;;;;18.20;99.90;;;;;;12492614;28;20002;-85
2023/10/11 08:27:08;;;;;;;;;;;18.40;99.90;;;;;;12503016;28;20299;-83
2023/10/11 08:33:14;;;;;;;;;;;18.50;99.90;;;;;;12500831;28;19936;-85
2023/10/11 08:39:21;;;;;;;;;;;18.70;99.90;;;;;;12499153;28;20571;-85
2023/10/11 08:45:33;;;;;;;;;;;18.70;99.90;;;;;;12484143;28;19936;-84
2023/10/11 08:51:40;;;;;;;;;;;18.80;99.90;;;;;;12482112;28;19936;-84
2023/10/11 08:57:47;;;;;;;;;;;18.80;99.90;;;;;;12491927;28;20434;-81
2023/10/11 09:04:15;;;;;;;;;;;18.80;99.90;;;;;;12495026;28;19933;-84
2023/10/11 09:10:22;;;;;;;;;;;18.90;99.90;;;;;;12482566;28;19929;-83
2023/10/11 09:16:34;;;;;;;;;;;19.00;99.90;;;;;;12497157;28;19937;-83
2023/10/11 09:22:47;;;;;;;;;;;19.30;99.90;;;;;;12477130;28;20020;-83
2023/10/11 09:28:57;;;;;;;;;;;19.40;99.90;;;;;;12499790;28;19929;-83
2023/10/11 09:34:59;;;;;;;;;;;19.60;99.90;;;;;;12504025;28;19925;-84
2023/10/11 09:41:07;;;;;;;;;;;19.70;99.90;;;;;;12500074;28;19929;-84
2023/10/11 09:47:16;;;;;;;;;;;19.80;99.90;;;;;;12497690;28;20351;-85
2023/10/11 09:53:19;;;;;;;;;;;20.00;99.90;;;;;;12494865;28;19933;-83
2023/10/11 09:59:34;;;;;;;;;;;20.10;99.90;;;;;;12499039;28;19975;-84
2023/10/11 10:05:55;;;;;;;;;;;20.20;99.90;;;;;;12469396;28;20452;-83
2023/10/11 10:12:06;;;;;;;;;;;20.40;99.90;;;;;;12498817;28;20920;-83
2023/10/11 10:18:12;;;;;;;;;;;20.60;99.90;;;;;;12485688;28;20440;-83
2023/10/11 10:24:30;;;;;;;;;;;20.80;99.90;;;;;;12496340;28;19960;-84
2023/10/11 10:30:54;;;;;;;;;;;20.60;99.90;;;;;;12492047;28;19935;-85
2023/10/11 10:36:59;;;;;;;;;;;20.50;99.90;;;;;;12485467;28;20424;-84
2023/10/11 10:43:08;;;;;;;;;;;20.50;99.90;;;;;;12510023;28;20036;-85
2023/10/11 10:49:11;;;;;;;;;;;20.50;99.90;;;;;;12490528;28;19929;-83
2023/10/11 10:55:14;;;;;;;;;;;20.30;99.90;;;;;;12480541;28;19972;-85
2023/10/11 11:01:33;;;;;;;;;;;20.80;99.90;;;;;;12496340;28;20023;-85
2023/10/11 11:07:36;;;;;;;;;;;21.00;99.90;;;;;;12510383;28;19968;-86
2023/10/11 11:13:39;;;;;;;;;;;21.30;99.90;;;;;;12486710;28;19929;-85
2023/10/11 11:19:42;;;;;;;;;;;21.40;99.90;;;;;;12510928;28;20433;-85
2023/10/11 11:25:51;;;;;;;;;;;21.40;99.90;;;;;;12483263;28;20384;-87
2023/10/11 11:31:54;;;;;;;;;;;21.50;99.90;;;;;;12489821;28;20003;-85
2023/10/11 11:38:02;;;;;;;;;;;21.40;99.90;;;;;;12500162;28;19928;-86
2023/10/11 11:44:04;;;;;;;;;;;21.40;99.90;;;;;;12501162;28;19974;-83
2023/10/11 11:50:18;;;;;;;;;;;21.50;99.90;;;;;;12488207;28;20092;-85
2023/10/11 11:56:22;;;;;;;;;;;21.60;99.90;;;;;;12486781;28;19929;-83
2023/10/11 12:02:26;;;;;;;;;;;21.20;99.90;;;;;;12494018;28;19929;-84
2023/10/11 12:08:31;;;;;;;;;;;21.20;99.90;;;;;;12495664;28;19959;-87
2023/10/11 12:14:39;;;;;;;;;;;21.30;99.90;;;;;;12498910;28;19933;-85
2023/10/11 12:20:46;;;;;;;;;;;21.20;99.90;;;;;;12485958;28;19951;-86
2023/10/11 12:26:53;;;;;;;;;;;21.20;99.90;;;;;;12477314;28;19932;-85
2023/10/11 12:32:55;;;;;;;;;;;21.30;99.90;;;;;;12492973;28;20025;-83
2023/10/11 12:38:59;;;;;;;;;;;21.20;99.90;;;;;;12493011;28;19941;-86
2023/10/11 12:45:07;;;;;;;;;;;21.10;99.90;;;;;;12497650;28;19937;-86
2023/10/11 12:51:10;;;;;;;;;;;20.90;99.90;;;;;;12496732;28;19936;-86
2023/10/11 12:57:15;;;;;;;;;;;20.80;99.90;;;;;;12478158;28;20031;-85
2023/10/11 13:03:26;;;;;;;;;;;21.00;99.90;;;;;;12489472;28;20320;-86
2023/10/11 13:09:28;;;;;;;;;;;21.10;99.90;;;;;;12489603;28;19952;-86
2023/10/11 13:15:32;;;;;;;;;;;21.10;99.90;;;;;;12532497;28;19952;-84
2023/10/11 13:21:35;;;;;;;;;;;21.20;99.90;;;;;;12517147;28;19964;-85
2023/10/11 13:27:37;;;;;;;;;;;21.30;99.90;;;;;;12489900;28;20050;-84
2023/10/11 13:33:42;;;;;;;;;;;21.40;99.90;;;;;;12481034;28;19933;-84
2023/10/11 13:39:47;;;;;;;;;;;21.30;99.90;;;;;;12475041;28;19924;-84
2023/10/11 13:45:56;;;;;;;;;;;21.20;99.90;;;;;;12478350;28;19937;-83
2023/10/11 13:51:59;;;;;;;;;;;21.00;99.90;;;;;;12494384;28;19991;-84
2023/10/11 13:58:01;;;;;;;;;;;20.80;99.90;;;;;;12491792;28;19933;-84
2023/10/11 14:04:13;;;;;;;;;;;20.70;99.90;;;;;;12489641;28;20020;-83
2023/10/11 14:10:22;;;;;;;;;;;20.70;99.90;;;;;;12500300;28;20508;-83
2023/10/11 14:16:27;;;;;;;;;;;20.60;99.90;;;;;;12449245;28;21211;-85
2023/10/11 14:22:29;;;;;;;;;;;20.40;99.90;;;;;;12437640;28;19929;-85
2023/10/11 14:28:31;;;;;;;;;;;20.30;99.90;;;;;;12436328;28;20423;-86
2023/10/11 14:34:33;;;;;;;;;;;20.10;99.90;;;;;;12448545;28;20503;-85
2023/10/11 14:40:35;;;;;;;;;;;20.10;99.90;;;;;;12448368;28;19989;-84
2023/10/11 14:46:39;;;;;;;;;;;20.10;99.90;;;;;;12443499;28;20428;-85
2023/10/11 14:52:43;;;;;;;;;;;20.10;99.90;;;;;;12453426;28;20301;-85
2023/10/11 14:58:46;;;;;;;;;;;20.10;99.90;;;;;;12456894;28;19929;-85
2023/10/11 15:04:50;;;;;;;;;;;19.90;99.90;;;;;;12433922;28;19937;-86
2023/10/11 15:10:53;;;;;;;;;;;19.90;99.90;;;;;;12438792;28;19929;-85
2023/10/11 15:16:58;;;;;;;;;;;19.90;99.90;;;;;;12442264;28;20392;-86
2023/10/11 15:23:04;;;;;;;;;;;19.80;99.90;;;;;;12436318;28;19980;-87
2023/10/11 15:29:06;;;;;;;;;;;19.80;99.90;;;;;;12407203;28;20278;-87
2023/10/11 15:35:14;;;;;;;;;;;19.80;99.90;;;;;;12439261;28;20495;-86
2023/10/11 15:41:16;;;;;;;;;;;19.80;99.90;;;;;;12455693;28;19929;-86
2023/10/11 15:47:18;;;;;;;;;;;19.70;99.90;;;;;;12436824;28;20341;-87
2023/10/11 15:53:22;;;;;;;;;;;19.90;99.90;;;;;;12420930;28;20333;-87
2023/10/11 15:59:30;;;;;;;;;;;19.80;99.90;;;;;;12431588;28;19929;-85
2023/10/11 16:05:32;;;;;;;;;;;19.80;99.90;;;;;;12431685;28;19936;-86
2023/10/11 16:11:34;;;;;;;;;;;19.70;99.90;;;;;;12437426;28;20389;-85
2023/10/11 16:17:38;;;;;;;;;;;19.60;99.90;;;;;;12431322;28;19975;-86
2023/10/11 16:23:39;;;;;;;;;;;19.40;99.90;;;;;;12431456;28;20683;-85
2023/10/11 16:29:42;;;;;;;;;;;19.40;99.90;;;;;;12424833;28;19929;-85
2023/10/11 16:35:44;;;;;;;;;;;19.30;99.90;;;;;;12438132;28;20599;-85
2023/10/11 16:41:46;;;;;;;;;;;19.30;99.90;;;;;;12424726;28;20074;-85
2023/10/11 16:47:48;;;;;;;;;;;19.10;99.90;;;;;;12421764;28;20023;-85
2023/10/11 16:53:50;;;;;;;;;;;19.00;99.90;;;;;;12428050;28;19934;-85
2023/10/11 16:59:52;;;;;;;;;;;19.00;99.90;;;;;;12439136;28;19926;-85
2023/10/11 17:05:54;;;;;;;;;;;19.00;99.90;;;;;;12444113;28;19960;-84
2023/10/11 17:11:56;;;;;;;;;;;18.90;99.90;;;;;;12437508;28;19958;-85
2023/10/11 17:18:02;;;;;;;;;;;18.80;99.90;;;;;;12492759;28;19925;-85
2023/10/11 17:24:09;;;;;;;;;;;18.80;99.90;;;;;;12477507;28;19929;-85
2023/10/11 17:30:13;;;;;;;;;;;18.70;99.90;;;;;;12470494;28;20238;-86
2023/10/11 17:36:15;;;;;;;;;;;18.80;99.90;;;;;;12483766;28;19929;-85
2023/10/11 17:42:18;;;;;;;;;;;18.90;99.90;;;;;;12486620;28;20267;-86
2023/10/11 17:48:20;;;;;;;;;;;18.90;99.90;;;;;;12485901;28;20174;-85
2023/10/11 17:54:22;;;;;;;;;;;19.00;99.90;;;;;;12485798;28;19975;-85
2023/10/11 18:00:27;;;;;;;;;;;19.00;99.90;;;;;;12493535;28;20571;-86
2023/10/11 18:06:29;;;;;;;;;;;19.00;99.90;;;;;;12472639;28;19936;-84
2023/10/11 18:12:31;;;;;;;;;;;18.90;99.90;;;;;;12479952;28;19929;-85
2023/10/11 18:18:33;;;;;;;;;;;18.90;99.90;;;;;;12487633;28;20408;-85
2023/10/11 18:24:37;;;;;;;;;;;18.90;99.90;;;;;;12484855;28;19935;-85
2023/10/11 18:30:40;;;;;;;;;;;18.70;99.90;;;;;;12500931;28;20007;-85
2023/10/11 18:36:42;;;;;;;;;;;18.80;99.90;;;;;;12504554;28;19974;-86
2023/10/11 18:42:45;;;;;;;;;;;18.70;99.90;;;;;;12493498;28;19936;-85
2023/10/11 18:48:47;;;;;;;;;;;18.80;99.90;;;;;;12488076;28;19940;-85
2023/10/11 18:54:50;;;;;;;;;;;18.80;99.90;;;;;;12504940;28;19933;-85
2023/10/11 19:00:54;;;;;;;;;;;18.80;99.90;;;;;;12536556;28;19943;-85
2023/10/11 19:06:56;;;;;;;;;;;18.80;99.90;;;;;;12559755;28;19921;-85
2023/10/11 19:12:59;;;;;;;;;;;18.80;99.90;;;;;;12540291;28;19947;-86
2023/10/11 19:19:01;;;;;;;;;;;18.80;99.90;;;;;;12563998;28;19928;-87
2023/10/11 19:25:20;;;;;;;;;;;18.90;99.90;;;;;;12559069;28;19933;-84
2023/10/11 19:31:22;;;;;;;;;;;18.90;99.90;;;;;;12528415;28;19932;-84
2023/10/11 19:37:25;;;;;;;;;;;18.90;99.90;;;;;;12494560;28;19995;-85
2023/10/11 19:43:27;;;;;;;;;;;18.80;99.90;;;;;;12489844;28;20017;-86
2023/10/11 19:49:29;;;;;;;;;;;18.80;99.90;;;;;;12476842;28;20153;-84
2023/10/11 19:55:32;;;;;;;;;;;18.90;99.90;;;;;;12499741;28;20439;-84
2023/10/11 20:01:34;;;;;;;;;;;19.00;99.90;;;;;;12501086;28;19928;-84
2023/10/11 20:07:37;;;;;;;;;;;19.10;99.90;;;;;;12505834;28;20257;-84
2023/10/11 20:13:38;;;;;;;;;;;19.20;99.90;;;;;;12502929;28;19929;-85
2023/10/11 20:19:41;;;;;;;;;;;19.40;99.90;;;;;;12493585;28;19974;-82
2023/10/11 20:25:42;;;;;;;;;;;19.50;99.90;;;;;;12500363;28;19929;-83
2023/10/11 20:31:44;;;;;;;;;;;19.50;99.90;;;;;;12493626;28;20355;-83
2023/10/11 20:37:47;;;;;;;;;;;19.40;99.90;;;;;;12493652;28;19935;-85
2023/10/11 20:43:49;;;;;;;;;;;19.40;99.90;;;;;;12490130;28;20241;-86
2023/10/11 20:49:54;;;;;;;;;;;19.50;99.90;;;;;;12496071;28;19932;-84
2023/10/11 20:55:58;;;;;;;;;;;19.40;99.90;;;;;;12490557;28;19952;-84
2023/10/11 21:02:00;;;;;;;;;;;19.40;99.90;;;;;;12495932;28;20115;-85
2023/10/11 21:08:02;;;;;;;;;;;19.30;99.90;;;;;;12498198;28;19932;-85
2023/10/11 21:14:05;;;;;;;;;;;19.30;99.90;;;;;;12486234;28;19932;-85
2023/10/11 21:20:11;;;;;;;;;;;19.30;99.90;;;;;;12486272;28;19929;-84
2023/10/11 21:26:14;;;;;;;;;;;19.30;99.90;;;;;;12498802;28;20019;-85
2023/10/11 21:32:16;;;;;;;;;;;19.30;99.90;;;;;;12485331;28;20393;-84
2023/10/11 21:38:18;;;;;;;;;;;19.10;99.90;;;;;;12488950;28;20023;-84
2023/10/11 21:44:20;;;;;;;;;;;19.20;99.90;;;;;;12487449;28;19935;-85
2023/10/11 21:50:23;;;;;;;;;;;19.10;99.90;;;;;;12469415;28;19951;-85
2023/10/11 21:56:28;;;;;;;;;;;19.10;99.90;;;;;;12494448;28;19968;-86
2023/10/11 22:02:33;;;;;;;;;;;19.10;99.90;;;;;;12509341;28;19933;-83
2023/10/11 22:08:35;;;;;;;;;;;19.10;99.90;;;;;;12504099;28;19929;-87
2023/10/11 22:14:38;;;;;;;;;;;19.10;99.90;;;;;;12506321;28;19928;-85
2023/10/11 22:20:40;;;;;;;;;;;19.10;99.90;;;;;;12506335;28;20201;-86
2023/10/11 22:26:43;;;;;;;;;;;19.10;99.90;;;;;;12500060;28;20419;-84
2023/10/11 22:32:49;;;;;;;;;;;19.20;99.90;;;;;;12486028;28;20019;-82
2023/10/11 22:38:50;;;;;;;;;;;19.10;99.90;;;;;;12478207;28;20714;-82
2023/10/11 22:44:52;;;;;;;;;;;19.10;99.90;;;;;;12497044;28;19929;-83
2023/10/11 22:50:54;;;;;;;;;;;19.00;99.90;;;;;;12496613;28;20448;-84
2023/10/11 22:56:57;;;;;;;;;;;18.90;99.90;;;;;;12508569;28;19948;-84
2023/10/11 23:03:00;;;;;;;;;;;18.90;99.90;;;;;;12503522;28;20357;-83
2023/10/11 23:09:03;;;;;;;;;;;18.90;99.90;;;;;;12493800;28;20427;-84
2023/10/11 23:15:14;;;;;;;;;;;19.00;99.90;;;;;;12515301;28;19924;-83
2023/10/11 23:21:26;;;;;;;;;;;18.90;99.90;;;;;;12545517;28;20373;-83
2023/10/11 23:27:28;;;;;;;;;;;18.80;99.90;;;;;;12545875;28;19928;-84
2023/10/11 23:33:33;;;;;;;;;;;18.70;99.90;;;;;;12557702;28;19937;-84
2023/10/11 23:39:35;;;;;;;;;;;18.70;99.90;;;;;;12550209;28;19921;-85
2023/10/11 23:45:37;;;;;;;;;;;18.60;99.90;;;;;;12491847;28;19952;-84
2023/10/11 23:51:39;;;;;;;;;;;18.60;99.90;;;;;;12506619;28;19929;-84
2023/10/11 23:57:45;;;;;;;;;;;18.60;99.90;;;;;;12491528;28;20027;-84
